M I D A S
Marine Information and Data Acquisition System
Tripno 863 of the Zeeleeuw from 2005-03-15 07:17:54 to 2005-03-15 12:53:38
Back to CruiseResearch ActivitiesStationsMapUnderway DataData graphs

EquipmentUnitsComment
TimeDGPSUTC
LatitudeDGPSDM.mWGS84
LongitudeDGPSDM.mWGS84
HeadingGyrodeg 
SOGDGPSknotsSpeed over ground
COGDGPSdegCourse over ground
DepthEcho soundermeters200 kHz
Missing or incorrect values are displayed as -999
Navigation data collected by the RV Zeeleeuw from 2005-03-15 07:14:11 to 2005-03-15 13:03:22
Time Latitude Longitude Heading SOG COG Depth
2005-03-15 07:15:16 51°13.619 2°56.027 120.9 4 299 -999
2005-03-15 07:16:16 51°13.653 2°55.917 115.9 4.9 294 -999
2005-03-15 07:17:16 51°13.673 2°55.811 97.1 3.7 280 -999
2005-03-15 07:18:16 51°13.686 2°55.791 47.1 2.2 37 9.8
2005-03-15 07:19:16 51°13.752 2°55.74 313.1 5.7 310 9.5
2005-03-15 07:20:16 51°13.862 2°55.61 337.4 9.3 333 9.4
2005-03-15 07:21:16 51°14.012 2°55.498 338.9 10.1 334 9.4
2005-03-15 07:22:16 51°14.167 2°55.379 337.5 10.7 333 9.5
2005-03-15 07:23:16 51°14.302 2°55.186 316.2 11.1 312 9.5
2005-03-15 07:24:16 51°14.437 2°54.951 323.5 12.8 317 10.4
2005-03-15 07:25:16 51°14.614 2°54.754 338.9 13 334 9.4
2005-03-15 07:26:16 51°14.819 2°54.759 19.1 11.3 13 9
2005-03-15 07:27:16 51°14.925 2°54.839 34.8 5.1 26 9.1
2005-03-15 07:28:16 51°14.987 2°54.874 25.7 3.4 17 9.1
2005-03-15 07:29:15 51°15.033 2°54.882 12.3 2.5 -999 9.1
2005-03-15 07:30:16 51°15.081 2°54.866 349.7 3.5 342 8.5
2005-03-15 07:31:16 51°15.179 2°54.803 345.6 9.3 339 8.1
2005-03-15 07:32:15 51°15.36 2°54.698 347.2 12.7 341 8.6
2005-03-15 07:33:16 51°15.552 2°54.51 327.7 13.7 321 9.2
2005-03-15 07:34:16 51°15.729 2°54.28 328 13.9 321 10
2005-03-15 07:35:16 51°15.91 2°54.045 327.9 13.9 320 10.7
2005-03-15 07:36:16 51°16.095 2°53.827 333 13.8 326 11
2005-03-15 07:37:15 51°16.284 2°53.624 333.2 13.8 326 11.3
2005-03-15 07:38:16 51°16.479 2°53.423 333.3 13.9 327 11.6
2005-03-15 07:39:16 51°16.671 2°53.218 333.1 13.9 326 11.2
2005-03-15 07:40:16 51°16.862 2°53.018 333.1 13.5 327 8.3
2005-03-15 07:41:16 51°17.049 2°52.82 332.1 13.9 327 9.2
2005-03-15 07:42:16 51°17.244 2°52.622 333 13.9 327 9.3
2005-03-15 07:43:15 51°17.439 2°52.43 340.1 13.9 333 9.8
2005-03-15 07:44:16 51°17.651 2°52.268 340.7 13.8 333 10
2005-03-15 07:45:16 51°17.867 2°52.164 352.2 13.7 346 10
2005-03-15 07:46:16 51°18.091 2°52.129 10.9 13.5 7 10.2
2005-03-15 07:47:15 51°18.306 2°52.22 28.3 13.5 22 10.7
2005-03-15 07:48:16 51°18.498 2°52.408 41.8 13.4 35 10.9
2005-03-15 07:49:16 51°18.684 2°52.608 41.1 13.5 35 11.1
2005-03-15 07:50:16 51°18.853 2°52.84 48.4 13.3 41 11.3
2005-03-15 07:51:16 51°19.018 2°53.073 47.8 13.2 40 11.6
2005-03-15 07:52:16 51°19.182 2°53.302 48.4 13.1 41 11.7
2005-03-15 07:53:16 51°19.348 2°53.528 46.4 13.1 39 12
2005-03-15 07:54:16 51°19.514 2°53.753 46.8 13.1 40 12.2
2005-03-15 07:55:16 51°19.676 2°53.985 49.3 13 43 12.4
2005-03-15 07:56:16 51°19.84 2°54.218 48 13.1 41 12.5
2005-03-15 07:57:16 51°20.001 2°54.448 48.9 13.1 43 13.1
2005-03-15 07:58:16 51°20.165 2°54.682 48.6 13.1 42 13.3
2005-03-15 07:59:16 51°20.326 2°54.912 48.7 13.2 43 13.2
2005-03-15 08:00:16 51°20.49 2°55.148 48.9 13.2 42 13.4
2005-03-15 08:01:16 51°20.656 2°55.381 47.5 13.3 41 13.8
2005-03-15 08:02:16 51°20.819 2°55.617 48.4 13.2 41 14
2005-03-15 08:03:16 51°20.985 2°55.857 48.9 13.3 42 14.1
2005-03-15 08:04:16 51°21.147 2°56.09 48.7 13.2 42 14.3
2005-03-15 08:05:16 51°21.309 2°56.329 50.2 13.3 43 14.6
2005-03-15 08:06:16 51°21.468 2°56.571 51.5 13.2 43 14.8
2005-03-15 08:07:16 51°21.629 2°56.809 50.5 13.2 43 15.1
2005-03-15 08:08:16 51°21.79 2°57.05 50.8 13.3 43 15.4
2005-03-15 08:09:16 51°21.953 2°57.293 50.2 13.4 44 15.5
2005-03-15 08:10:16 51°22.115 2°57.537 50 13.4 43 16
2005-03-15 08:11:16 51°22.277 2°57.781 50.6 13.4 44 16.3
2005-03-15 08:12:16 51°22.439 2°58.024 50.5 13.4 44 16.5
2005-03-15 08:13:16 51°22.6 2°58.273 50.7 13.4 44 16.7
2005-03-15 08:14:15 51°22.759 2°58.516 49.7 13.4 43 16.8
2005-03-15 08:15:16 51°22.926 2°58.763 49.4 13.5 42 17
2005-03-15 08:16:16 51°23.091 2°59.011 49.7 13.5 42 17
2005-03-15 08:17:16 51°23.25 2°59.258 51.5 13.5 44 17.1
2005-03-15 08:18:16 51°23.406 2°59.515 52.9 13.6 46 17.4
2005-03-15 08:19:16 51°23.565 2°59.773 52.4 13.6 47 17.5
2005-03-15 08:20:16 51°23.722 3°0.029 52 13.4 45 17.6
2005-03-15 08:21:16 51°23.878 3°0.286 52.3 13.4 45 17.4
2005-03-15 08:22:16 51°24.032 3°0.543 52 13.4 46 16.8
2005-03-15 08:23:15 51°24.185 3°0.795 52.1 13.2 46 16.2
2005-03-15 08:24:16 51°24.334 3°1.056 54.6 13.2 48 15.9
2005-03-15 08:25:16 51°24.48 3°1.313 55.1 13 48 15.6
2005-03-15 08:26:16 51°24.63 3°1.569 54.4 13.3 47 17.5
2005-03-15 08:27:16 51°24.782 3°1.827 53.9 13.3 46 17.5
2005-03-15 08:28:17 51°24.937 3°2.085 54.7 13.1 46 15.4
2005-03-15 08:29:16 51°25.085 3°2.334 54.7 13.1 47 13.6
2005-03-15 08:30:16 51°25.231 3°2.592 56.1 13.1 49 13
2005-03-15 08:31:16 51°25.373 3°2.856 60.6 13 52 12.3
2005-03-15 08:32:16 51°25.503 3°3.137 62.2 12.9 54 11.1
2005-03-15 08:33:16 51°25.631 3°3.414 63.4 13 55 9.7
2005-03-15 08:34:16 51°25.759 3°3.693 60.9 12.8 52 9.3
2005-03-15 08:35:16 51°25.891 3°3.971 61.8 13.1 53 9.3
2005-03-15 08:36:16 51°26.026 3°4.252 60 13.4 52 8.8
2005-03-15 08:37:15 51°26.152 3°4.542 63.8 13.5 56 9.9
2005-03-15 08:38:16 51°26.278 3°4.841 63 13.4 57 10.3
2005-03-15 08:39:16 51°26.404 3°5.135 61.9 13.3 55 10.6
2005-03-15 08:40:16 51°26.529 3°5.428 62.8 13.3 56 10.3
2005-03-15 08:41:16 51°26.656 3°5.717 62.5 13.2 56 10.2
2005-03-15 08:42:16 51°26.781 3°6.009 63 13.4 57 10.3
2005-03-15 08:43:16 51°26.904 3°6.306 62 13.4 56 11
2005-03-15 08:44:16 51°27.033 3°6.599 62.2 13.4 55 11.4
2005-03-15 08:45:16 51°27.159 3°6.896 62.5 13.4 57 11.5
2005-03-15 08:46:16 51°27.288 3°7.189 60.1 13.4 55 11.5
2005-03-15 08:47:15 51°27.417 3°7.479 61.6 13.4 54 11.2
2005-03-15 08:48:16 51°27.546 3°7.771 61.6 13.3 56 10.1
2005-03-15 08:49:16 51°27.675 3°8.059 61.8 13.5 54 10.8
2005-03-15 08:50:16 51°27.805 3°8.357 61.6 13.5 55 12
2005-03-15 08:51:16 51°27.933 3°8.647 61.6 13.6 55 12.6
2005-03-15 08:52:16 51°28.056 3°8.919 60.2 9.9 51 12.9
2005-03-15 08:53:16 51°28.131 3°9.015 57.6 2.9 42 12.7
2005-03-15 08:54:16 51°28.148 3°9.009 87 1 345 13
2005-03-15 08:55:16 51°28.165 3°9.003 98 1 353 12.9
2005-03-15 08:56:16 51°28.181 3°9 110.2 1.1 359 12.9
2005-03-15 08:57:16 51°28.197 3°8.999 118.1 0.9 359 12.9
2005-03-15 08:58:16 51°28.213 3°8.999 124.8 0.9 5 13
2005-03-15 08:59:16 51°28.228 3°9.001 128 0.9 10 13
2005-03-15 09:00:16 51°28.242 3°9.004 130.2 0.8 5 13.1
2005-03-15 09:01:16 51°28.256 3°9.008 131.5 0.9 13 13.1
2005-03-15 09:02:16 51°28.269 3°9.013 133.6 0.8 12 13.1
2005-03-15 09:03:16 51°28.283 3°9.017 136.8 0.8 12 13.2
2005-03-15 09:04:16 51°28.295 3°9.021 136.4 0.9 12 13.1
2005-03-15 09:05:16 51°28.308 3°9.025 135.9 0.8 14 13.3
2005-03-15 09:06:16 51°28.321 3°9.03 137.5 0.8 15 13.2
2005-03-15 09:07:16 51°28.334 3°9.034 138.6 0.8 14 13.3
2005-03-15 09:08:17 51°28.346 3°9.038 137.1 0.7 14 13.3
2005-03-15 09:09:16 51°28.359 3°9.042 137.3 0.7 12 13.3
2005-03-15 09:10:16 51°28.371 3°9.048 137.9 0.7 13 13.4
2005-03-15 09:11:16 51°28.371 3°9.07 134.3 2.2 116 13.3
2005-03-15 09:12:16 51°28.386 3°9.198 63.8 6.1 65 13.2
2005-03-15 09:13:16 51°28.502 3°9.228 355.1 7.8 358 13.5
2005-03-15 09:14:16 51°28.591 3°9.078 295.2 8 293 13.8
2005-03-15 09:15:16 51°28.622 3°8.885 288.9 6.8 288 13.9
2005-03-15 09:16:16 51°28.675 3°8.773 325.8 4.6 322 13.5
2005-03-15 09:17:16 51°28.744 3°8.754 17.8 4.3 6 13.6
2005-03-15 09:18:16 51°28.818 3°8.781 27.3 4.7 15 13.6
2005-03-15 09:19:16 51°28.882 3°8.838 52.2 4.4 37 13.9
2005-03-15 09:20:16 51°28.941 3°8.912 49.8 4.5 38 14
2005-03-15 09:21:16 51°28.989 3°8.989 60.2 3.7 49 14.1
2005-03-15 09:22:16 51°29.024 3°9.052 65.9 3 51 14.2
2005-03-15 09:23:16 51°29.051 3°9.11 75.1 2.5 58 14.3
2005-03-15 09:24:16 51°29.071 3°9.162 77.5 2.3 57 14.3
2005-03-15 09:25:15 51°29.092 3°9.214 74.2 2.4 56 14.4
2005-03-15 09:26:15 51°29.113 3°9.265 76.5 2.3 60 14.5
2005-03-15 09:27:16 51°29.132 3°9.319 78.7 2.3 61 14.5
2005-03-15 09:28:16 51°29.151 3°9.371 75.2 2.3 54 14.6
2005-03-15 09:29:15 51°29.172 3°9.423 76.2 2.3 58 14.6
2005-03-15 09:30:15 51°29.193 3°9.476 74.7 2.3 56 14.6
2005-03-15 09:31:16 51°29.215 3°9.529 73.3 2.3 56 14.8
2005-03-15 09:32:16 51°29.237 3°9.579 71.5 2.4 55 14.7
2005-03-15 09:33:15 51°29.259 3°9.629 70.4 2.4 52 14.8
2005-03-15 09:34:16 51°29.283 3°9.68 70 2.3 54 14.8
2005-03-15 09:35:16 51°29.306 3°9.731 71.1 2.3 53 14.6
2005-03-15 09:36:16 51°29.328 3°9.782 71.8 2.3 57 14.7
2005-03-15 09:37:16 51°29.35 3°9.833 70.4 2.3 55 14.7
2005-03-15 09:38:16 51°29.372 3°9.881 68.4 2.3 53 14.7
2005-03-15 09:39:16 51°29.397 3°9.929 64.9 2.3 53 14.7
2005-03-15 09:40:16 51°29.423 3°9.974 60 2.3 45 14.7
2005-03-15 09:41:16 51°29.453 3°10.014 53 2.4 38 14.7
2005-03-15 09:42:16 51°29.487 3°10.052 47.9 2.5 33 14.8
2005-03-15 09:43:16 51°29.521 3°10.088 47.9 2.5 35 14.9
2005-03-15 09:44:17 51°29.554 3°10.127 52.8 2.4 37 14.9
2005-03-15 09:45:16 51°29.582 3°10.169 58.9 2.4 45 14.9
2005-03-15 09:46:16 51°29.607 3°10.217 66.7 2.2 56 14.9
2005-03-15 09:47:15 51°29.625 3°10.265 72 2.1 62 14.9
2005-03-15 09:48:16 51°29.646 3°10.311 62 2.1 50 14.9
2005-03-15 09:49:16 51°29.673 3°10.352 54 2.2 43 14.8
2005-03-15 09:50:16 51°29.7 3°10.394 55.7 2.3 44 14.8
2005-03-15 09:51:16 51°29.729 3°10.436 53.5 2.4 42 14.9
2005-03-15 09:52:16 51°29.757 3°10.482 58.5 2.4 48 14.8
2005-03-15 09:53:16 51°29.782 3°10.53 62.4 2.3 52 14.8
2005-03-15 09:54:16 51°29.805 3°10.582 65.1 2.4 59 14.7
2005-03-15 09:55:16 51°29.824 3°10.654 76.2 3.1 70 14.5
2005-03-15 09:56:16 51°29.838 3°10.739 81.5 3.3 78 14.3
2005-03-15 09:57:16 51°29.842 3°10.829 92.9 3.4 94 14
2005-03-15 09:58:16 51°29.829 3°10.907 112.7 2.5 113 13.9
2005-03-15 09:59:16 51°29.811 3°10.951 124.1 1.7 129 13.8
2005-03-15 10:00:16 51°29.794 3°10.978 130.7 1.2 138 13.7
2005-03-15 10:01:16 51°29.759 3°11.006 163.4 3.1 172 13.5
2005-03-15 10:02:16 51°29.698 3°10.983 199.8 4.4 204 13.4
2005-03-15 10:03:17 51°29.637 3°10.894 234.5 5.3 237 13.4
2005-03-15 10:04:16 51°29.603 3°10.776 248.1 4.6 248 13.5
2005-03-15 10:05:16 51°29.577 3°10.669 246 4.2 248 13.7
2005-03-15 10:06:16 51°29.554 3°10.568 253.2 3.9 254 13.9
2005-03-15 10:07:16 51°29.538 3°10.479 252.3 3.2 255 14.2
2005-03-15 10:08:16 51°29.525 3°10.403 251.1 2.8 252 14.3
2005-03-15 10:09:16 51°29.511 3°10.335 247.5 2.5 251 14.5
2005-03-15 10:10:16 51°29.497 3°10.275 245.1 2.4 248 14.5
2005-03-15 10:11:16 51°29.481 3°10.215 243.1 2.4 245 14.5
2005-03-15 10:12:16 51°29.464 3°10.159 239.2 2.3 244 14.6
2005-03-15 10:13:16 51°29.445 3°10.106 236.6 2.3 240 14.6
2005-03-15 10:14:16 51°29.426 3°10.052 238.7 2.3 241 14.7
2005-03-15 10:15:16 51°29.407 3°9.997 240.8 2.3 241 14.7
2005-03-15 10:16:16 51°29.39 3°9.941 242.1 2.3 243 14.7
2005-03-15 10:17:16 51°29.372 3°9.885 241.5 2.4 245 14.8
2005-03-15 10:18:15 51°29.355 3°9.832 239.6 2.3 239 14.8
2005-03-15 10:19:16 51°29.337 3°9.779 238.6 2.3 241 14.7
2005-03-15 10:20:16 51°29.318 3°9.728 236.1 2.2 237 14.7
2005-03-15 10:21:16 51°29.297 3°9.677 234.2 2.3 235 14.7
2005-03-15 10:22:16 51°29.276 3°9.628 233.2 2.2 231 14.7
2005-03-15 10:23:16 51°29.253 3°9.581 230.6 2.2 232 14.7
2005-03-15 10:24:16 51°29.23 3°9.536 228.8 2.2 228 14.8
2005-03-15 10:25:16 51°29.205 3°9.49 229.6 2.3 226 14.7
2005-03-15 10:26:17 51°29.18 3°9.444 228.8 2.3 230 14.6
2005-03-15 10:27:16 51°29.156 3°9.398 230.5 2.3 230 14.6
2005-03-15 10:28:16 51°29.13 3°9.35 230.8 2.3 229 14.6
2005-03-15 10:29:16 51°29.106 3°9.303 231.6 2.3 228 14.5
2005-03-15 10:30:16 51°29.081 3°9.258 230.6 2.2 224 14.4
2005-03-15 10:31:16 51°29.056 3°9.213 230.8 2.2 228 14.4
2005-03-15 10:32:16 51°29.032 3°9.168 231.4 2.2 228 14.3
2005-03-15 10:33:16 51°29.006 3°9.123 230.6 2.2 225 14.3
2005-03-15 10:34:16 51°28.981 3°9.079 230.3 2.3 226 14.3
2005-03-15 10:35:17 51°28.956 3°9.033 231.8 2.3 233 14.2
2005-03-15 10:36:14 51°28.932 3°8.989 231.7 2.3 228 14.1
2005-03-15 10:37:16 51°28.906 3°8.943 229.6 2.3 226 14
2005-03-15 10:38:16 51°28.877 3°8.892 232.5 2.9 228 13.9
2005-03-15 10:39:16 51°28.843 3°8.819 241.4 3.7 237 13.8
2005-03-15 10:40:16 51°28.813 3°8.727 252.2 4 248 13.6
2005-03-15 10:41:15 51°28.796 3°8.625 269.6 4.2 259 13.5
2005-03-15 10:42:15 51°28.791 3°8.538 276.3 2.9 265 13.1
2005-03-15 10:43:16 51°28.787 3°8.476 279.4 2 264 13
2005-03-15 10:44:16 51°28.784 3°8.43 282.7 1.6 263 13.2
2005-03-15 10:45:15 51°28.781 3°8.395 284 1.3 259 13.4
2005-03-15 10:46:17 51°28.777 3°8.359 285.7 1.1 257 13.4
2005-03-15 10:47:16 51°28.762 3°8.261 252.7 4.7 244 13.7
2005-03-15 10:48:16 51°28.699 3°8.141 227.9 7.1 224 13.7
2005-03-15 10:49:15 51°28.589 3°7.971 228.4 10.1 227 13.8
2005-03-15 10:50:16 51°28.433 3°7.767 221.6 12.7 218 13.6
2005-03-15 10:51:16 51°28.267 3°7.548 223.1 12.8 220 13.4
2005-03-15 10:52:16 51°28.093 3°7.314 223.7 14.2 220 13.3
2005-03-15 10:53:16 51°27.91 3°7.069 223.7 14.4 220 13.2
2005-03-15 10:54:16 51°27.726 3°6.821 223.6 14.5 220 13.1
2005-03-15 10:55:16 51°27.542 3°6.567 227.1 14.4 223 13.2
2005-03-15 10:56:16 51°27.373 3°6.299 229.3 14.4 224 12.6
2005-03-15 10:57:16 51°27.203 3°6.028 229.3 14.5 225 12
2005-03-15 10:58:16 51°27.032 3°5.755 229.3 14.5 225 11.1
2005-03-15 10:59:15 51°26.859 3°5.483 229.7 14.7 225 11
2005-03-15 11:00:16 51°26.681 3°5.205 228.8 14.7 224 10.8
2005-03-15 11:01:16 51°26.505 3°4.932 229.5 14.7 224 10.5
2005-03-15 11:02:15 51°26.33 3°4.665 229 14.8 223 9.9
2005-03-15 11:03:17 51°26.13 3°4.437 202.9 14.4 202 9.1
2005-03-15 11:04:16 51°25.892 3°4.439 177 14.8 178 10.3
2005-03-15 11:05:16 51°25.644 3°4.455 177.8 14.6 179 10.5
2005-03-15 11:06:17 51°25.408 3°4.532 158.9 14.3 160 11
2005-03-15 11:07:17 51°25.186 3°4.669 157.3 14.4 159 11.5
2005-03-15 11:08:16 51°24.966 3°4.795 163.9 13.9 166 12.4
2005-03-15 11:09:17 51°24.728 3°4.827 177 14.3 176 12
2005-03-15 11:10:16 51°24.497 3°4.773 194.9 14.4 194 13.8
2005-03-15 11:11:16 51°24.271 3°4.645 204.3 14.2 202 17.3
2005-03-15 11:12:17 51°24.053 3°4.482 208 14 206 14.3
2005-03-15 11:13:16 51°23.849 3°4.315 210.4 14.3 208 12
2005-03-15 11:14:16 51°23.641 3°4.128 210.4 14.3 210 11.5
2005-03-15 11:15:16 51°23.437 3°3.92 213.6 14.7 214 11.3
2005-03-15 11:16:16 51°23.233 3°3.71 212.5 14.5 213 11.2
2005-03-15 11:17:16 51°23.028 3°3.503 212.3 14.6 211 11.1
2005-03-15 11:18:16 51°22.824 3°3.298 212.6 14.4 211 10.4
2005-03-15 11:19:16 51°22.62 3°3.097 213.4 14.2 213 10.1
2005-03-15 11:20:16 51°22.427 3°2.862 218.2 14.5 217 10.3
2005-03-15 11:21:16 51°22.238 3°2.618 225 14.6 223 10.4
2005-03-15 11:22:17 51°22.078 3°2.315 236.4 14.7 233 10.6
2005-03-15 11:23:16 51°21.939 3°1.998 238 14.7 235 10.5
2005-03-15 11:24:16 51°21.8 3°1.682 237.8 14.6 234 10.4
2005-03-15 11:25:17 51°21.658 3°1.361 238.2 14.5 234 10.4
2005-03-15 11:26:16 51°21.528 3°1.04 240.9 14.5 237 10.2
2005-03-15 11:27:16 51°21.401 3°0.719 241.4 14.4 238 10.2
2005-03-15 11:28:16 51°21.27 3°0.391 241.5 14.6 238 10.2
2005-03-15 11:29:16 51°21.139 3°0.057 241.7 14.7 238 10.3
2005-03-15 11:30:17 51°21.009 2°59.725 240.9 14.6 237 10.3
2005-03-15 11:31:16 51°20.881 2°59.398 241.5 14.7 238 10.3
2005-03-15 11:32:16 51°20.753 2°59.07 241.3 14.7 239 10.4
2005-03-15 11:33:15 51°20.623 2°58.741 241.5 14.8 238 10.4
2005-03-15 11:34:16 51°20.49 2°58.402 240.7 14.8 237 10.4
2005-03-15 11:35:16 51°20.361 2°58.071 240.7 14.8 238 10.4
2005-03-15 11:36:15 51°20.232 2°57.737 241 14.9 238 10.4
2005-03-15 11:37:16 51°20.098 2°57.394 241 15 238 10.5
2005-03-15 11:38:16 51°19.966 2°57.056 241.6 15 239 10.5
2005-03-15 11:39:16 51°19.835 2°56.719 241.3 15.1 239 10.4
2005-03-15 11:40:16 51°19.703 2°56.376 241.5 15.1 238 10.6
2005-03-15 11:41:16 51°19.571 2°56.028 241.3 15.2 239 10.5
2005-03-15 11:42:16 51°19.439 2°55.684 241.6 15.2 239 10.5
2005-03-15 11:43:16 51°19.317 2°55.335 243.4 15.2 241 10.7
2005-03-15 11:44:17 51°19.189 2°54.975 243.3 15.2 240 10.7
2005-03-15 11:45:16 51°19.067 2°54.63 243.8 15.2 241 10.8
2005-03-15 11:46:16 51°18.945 2°54.282 243.8 15.2 241 10.8
2005-03-15 11:47:16 51°18.817 2°53.93 243.7 15.1 240 10.7
2005-03-15 11:48:15 51°18.694 2°53.588 243.8 15.1 241 10.6
2005-03-15 11:49:17 51°18.556 2°53.243 237.8 15 235 10.5
2005-03-15 11:50:16 51°18.404 2°52.934 231 14.9 230 10.5
2005-03-15 11:51:16 51°18.227 2°52.66 221.3 14.8 219 10.2
2005-03-15 11:52:17 51°18.005 2°52.481 201 14.6 202 9.8
2005-03-15 11:53:16 51°17.781 2°52.34 201.3 14.6 201 9.6
2005-03-15 11:54:15 51°17.555 2°52.206 195.7 14.7 195 9.7
2005-03-15 11:55:16 51°17.314 2°52.144 183.7 14.4 184 9.8
2005-03-15 11:56:16 51°17.073 2°52.131 181.3 14.5 182 9.6
2005-03-15 11:57:16 51°16.839 2°52.156 162.3 13.9 162 9.3
2005-03-15 11:58:16 51°16.652 2°52.359 137.1 13.6 139 9.8
2005-03-15 11:59:16 51°16.478 2°52.602 138.4 13.9 140 11.2
2005-03-15 12:00:16 51°16.303 2°52.844 138.7 13.7 139 11.6
2005-03-15 12:01:16 51°16.133 2°53.08 138.1 13.5 138 11.3
2005-03-15 12:02:17 51°16.04 2°53.359 110.3 10.5 111 11.1
2005-03-15 12:03:16 51°15.982 2°53.484 132 4.4 140 11
2005-03-15 12:04:16 51°15.948 2°53.506 158.6 1.5 176 11
2005-03-15 12:05:16 51°15.926 2°53.504 166.5 1.2 186 11.1
2005-03-15 12:06:16 51°15.909 2°53.5 168.7 1 189 11
2005-03-15 12:07:16 51°15.895 2°53.494 166.7 0.8 202 11.1
2005-03-15 12:08:16 51°15.886 2°53.489 160.5 0.6 199 11
2005-03-15 12:09:16 51°15.879 2°53.484 149.4 0.4 205 11
2005-03-15 12:10:16 51°15.875 2°53.48 138.2 0.3 209 11
2005-03-15 12:11:17 51°15.87 2°53.475 129.9 0.3 215 11.1
2005-03-15 12:12:16 51°15.866 2°53.47 126 0.3 214 11
2005-03-15 12:13:17 51°15.86 2°53.466 125.9 0.3 217 11
2005-03-15 12:14:17 51°15.856 2°53.461 127 0.2 208 11
2005-03-15 12:15:16 51°15.852 2°53.457 129.8 0.3 205 11.1
2005-03-15 12:16:16 51°15.847 2°53.454 132.2 0.3 200 11.1
2005-03-15 12:17:16 51°15.842 2°53.45 133.5 0.3 201 11.2
2005-03-15 12:18:16 51°15.837 2°53.445 134.7 0.4 206 11.1
2005-03-15 12:19:16 51°15.831 2°53.44 136 0.4 210 11.1
2005-03-15 12:20:16 51°15.826 2°53.435 135.8 0.4 202 11.1
2005-03-15 12:21:17 51°15.821 2°53.431 135.1 0.4 202 11.1
2005-03-15 12:22:16 51°15.816 2°53.428 133.6 0.3 201 11.1
2005-03-15 12:23:16 51°15.81 2°53.425 133.8 0.4 201 11.2
2005-03-15 12:24:16 51°15.804 2°53.423 135 0.4 196 11.2
2005-03-15 12:25:17 51°15.798 2°53.421 137.5 0.4 190 11.2
2005-03-15 12:26:17 51°15.793 2°53.419 137.1 0.3 190 11.2
2005-03-15 12:27:16 51°15.788 2°53.418 134.6 0.2 183 11.2
2005-03-15 12:28:16 51°15.785 2°53.418 133.5 0.1 184 11.2
2005-03-15 12:29:16 51°15.782 2°53.417 131.4 0.1 192 11.3
2005-03-15 12:30:16 51°15.779 2°53.416 130.8 0.2 187 11.2
2005-03-15 12:31:16 51°15.776 2°53.416 131.5 0.2 173 11.2
2005-03-15 12:32:16 51°15.772 2°53.416 132.8 0.2 176 11.2
2005-03-15 12:33:16 51°15.768 2°53.416 134.3 0.2 174 11.3
2005-03-15 12:34:17 51°15.765 2°53.417 133.8 0.2 171 11.3
2005-03-15 12:35:16 51°15.763 2°53.418 133.5 0.1 164 11.3
2005-03-15 12:36:16 51°15.761 2°53.42 132.8 0.3 136 11.3
2005-03-15 12:37:16 51°15.729 2°53.455 147.3 3.2 150 11.2
2005-03-15 12:38:16 51°15.673 2°53.506 145.7 4.2 149 11.1
2005-03-15 12:39:16 51°15.608 2°53.571 145.7 4.9 149 10.9
2005-03-15 12:40:17 51°15.531 2°53.641 147.3 5.3 152 10.7
2005-03-15 12:41:16 51°15.454 2°53.711 145.1 5.5 149 10.4
2005-03-15 12:42:16 51°15.38 2°53.799 138.2 5.5 141 10
2005-03-15 12:43:16 51°15.308 2°53.895 138.1 6 139 9.8
2005-03-15 12:44:16 51°15.214 2°54.031 138.3 8.3 137 9.4
2005-03-15 12:45:16 51°15.108 2°54.183 138.9 8.7 137 9
2005-03-15 12:46:16 51°15.007 2°54.325 142.7 6.6 142 8.8
2005-03-15 12:47:16 51°14.938 2°54.402 149.4 4.1 147 9.1
2005-03-15 12:48:16 51°14.894 2°54.442 154.9 2.5 152 9.5
2005-03-15 12:49:16 51°14.859 2°54.473 152.2 2.6 149 9.8
2005-03-15 12:50:16 51°14.815 2°54.529 137.1 4.6 132 9.7
2005-03-15 12:51:16 51°14.726 2°54.698 138.4 10.8 137 9.7
2005-03-15 12:52:16 51°14.552 2°54.869 156.1 12.8 152 9.7
2005-03-15 12:53:16 51°14.377 2°55.053 140 12.6 139 10.4
2005-03-15 12:54:17 51°14.244 2°55.293 140.3 11.9 132 10.6
2005-03-15 12:55:16 51°14.117 2°55.419 158.3 7.9 154 9.7
2005-03-15 12:56:16 51°14.001 2°55.506 158.5 7.5 155 10.2
2005-03-15 12:57:16 51°13.886 2°55.594 158.9 7.9 155 10.7
2005-03-15 12:58:17 51°13.77 2°55.698 144.7 7.9 150 -999
2005-03-15 12:59:17 51°13.701 2°55.82 133.5 5.8 129 -999
2005-03-15 13:00:17 51°13.648 2°55.939 127.6 5.5 123 -999
2005-03-15 13:01:17 51°13.617 2°56.031 120.6 2.9 117 9.4
2005-03-15 13:02:15 51°13.599 2°56.09 125.5 1.4 116 7.5
2005-03-15 13:03:17 51°13.595 2°56.102 128.4 0.3 98 7.4